Time;durP1;ratioP1;P1;durP2;ratioP2;P2;SDS_P1;SDS_P2;PMS_P1;PMS_P2;Temp;Humidity;BMP_temperature;BMP_pressure;BME280_temperature;BME280_humidity;BME280_pressure;Samples;Min_cycle;Max_cycle;Signal;HPM_P1;HPM_P2
2021/12/23 00:01:49;;;;;;;14.30;9.37;;;0.60;1.00;;;;;;5033127;28;20464;-63
2021/12/23 00:04:16;;;;;;;16.47;10.43;;;0.60;1.00;;;;;;5033756;28;20467;-63
2021/12/23 00:06:44;;;;;;;15.70;10.50;;;0.60;1.00;;;;;;5034910;28;20446;-62
2021/12/23 00:09:11;;;;;;;16.90;9.80;;;0.60;1.00;;;;;;5036184;28;20450;-62
2021/12/23 00:11:38;;;;;;;16.30;10.43;;;0.60;1.00;;;;;;5033380;28;21036;-63
2021/12/23 00:14:07;;;;;;;16.33;10.03;;;0.50;1.00;;;;;;5032890;28;20465;-63
2021/12/23 00:16:43;;;;;;;17.57;10.47;;;0.50;1.00;;;;;;5033091;28;20460;-62
2021/12/23 00:19:20;;;;;;;15.70;9.63;;;0.50;1.00;;;;;;5013988;28;20528;-62
2021/12/23 00:24:32;;;;;;;14.67;9.90;;;0.60;1.00;;;;;;5013630;28;20439;-63
2021/12/23 00:26:59;;;;;;;17.27;9.67;;;0.60;1.00;;;;;;5013352;28;20887;-62
2021/12/23 00:29:26;;;;;;;15.47;9.57;;;0.50;1.00;;;;;;5012690;28;20450;-62
2021/12/23 00:31:54;;;;;;;15.90;9.97;;;0.40;11.60;;;;;;5013441;28;20443;-61
2021/12/23 00:34:21;;;;;;;16.83;9.93;;;0.40;13.30;;;;;;5013481;28;20459;-60
2021/12/23 00:36:48;;;;;;;17.07;10.17;;;0.40;17.90;;;;;;5013110;28;20939;-62
2021/12/23 00:39:16;;;;;;;15.87;9.87;;;0.40;25.30;;;;;;5013055;28;20466;-61
2021/12/23 00:41:44;;;;;;;18.63;10.97;;;0.40;43.60;;;;;;5012610;28;20476;-63
2021/12/23 00:44:11;;;;;;;18.57;10.53;;;0.40;9.80;;;;;;5013122;28;20468;-62
2021/12/23 00:46:38;;;;;;;18.43;10.20;;;0.50;1.00;;;;;;5012834;28;20448;-62
2021/12/23 00:49:07;;;;;;;13.67;9.70;;;0.60;4.80;;;;;;5012741;28;20492;-62
2021/12/23 00:51:34;;;;;;;17.17;10.67;;;0.60;18.40;;;;;;5012559;28;20450;-62
2021/12/23 00:54:04;;;;;;;18.67;10.77;;;0.60;1.00;;;;;;5012418;28;20452;-62
2021/12/23 00:56:32;;;;;;;16.37;9.47;;;0.60;21.10;;;;;;5011707;28;20479;-61
2021/12/23 00:58:59;;;;;;;18.70;11.13;;;0.60;5.00;;;;;;5012362;28;20455;-62
2021/12/23 01:01:26;;;;;;;13.17;8.77;;;0.60;14.30;;;;;;5012883;28;20807;-63
2021/12/23 01:03:53;;;;;;;16.50;10.03;;;0.60;15.00;;;;;;5012301;28;20455;-62
2021/12/23 01:06:21;;;;;;;16.77;9.87;;;0.50;23.70;;;;;;5012624;28;20454;-62
2021/12/23 01:08:48;;;;;;;17.97;11.13;;;0.50;32.80;;;;;;5012187;28;20498;-62
2021/12/23 01:11:15;;;;;;;16.50;9.90;;;0.50;40.80;;;;;;5012444;28;20450;-62
2021/12/23 01:13:48;;;;;;;20.80;11.20;;;0.60;30.00;;;;;;5012681;28;20455;-61
2021/12/23 01:16:25;;;;;;;17.23;11.47;;;0.60;18.30;;;;;;5011973;28;20470;-62
2021/12/23 01:18:54;;;;;;;14.70;9.30;;;0.60;24.30;;;;;;5013274;28;20831;-62
2021/12/23 01:21:22;;;;;;;18.67;12.23;;;0.70;18.30;;;;;;5012817;28;20446;-62
2021/12/23 01:23:52;;;;;;;18.40;10.83;;;0.60;35.30;;;;;;5013328;28;20457;-62
2021/12/23 01:26:21;;;;;;;19.40;10.93;;;0.60;27.80;;;;;;5012943;28;20484;-62
2021/12/23 01:28:51;;;;;;;17.93;11.27;;;0.70;32.10;;;;;;5012767;28;20545;-62
2021/12/23 01:31:19;;;;;;;18.07;11.50;;;0.70;25.80;;;;;;5013067;28;20506;-62
2021/12/23 01:33:46;;;;;;;19.63;10.60;;;0.70;44.30;;;;;;5012576;28;20479;-62
2021/12/23 01:36:13;;;;;;;17.63;9.80;;;0.70;39.60;;;;;;5012862;28;20453;-62
2021/12/23 01:38:42;;;;;;;21.77;11.67;;;0.70;29.90;;;;;;5012633;28;20487;-63
2021/12/23 01:41:08;;;;;;;16.37;9.07;;;0.70;52.40;;;;;;5012759;28;20443;-60
2021/12/23 01:43:35;;;;;;;18.20;11.57;;;0.70;31.20;;;;;;5012863;28;20455;-63
2021/12/23 01:46:02;;;;;;;17.43;10.80;;;0.80;30.00;;;;;;5012387;28;20797;-62
2021/12/23 01:48:29;;;;;;;17.57;10.77;;;0.70;47.10;;;;;;5012480;28;20492;-61
2021/12/23 01:50:56;;;;;;;19.27;10.90;;;0.70;50.30;;;;;;5012375;28;20451;-63
2021/12/23 01:53:22;;;;;;;18.47;10.33;;;0.70;42.70;;;;;;5012742;28;21039;-63
2021/12/23 01:55:50;;;;;;;14.57;9.87;;;0.70;49.70;;;;;;5012120;28;20950;-62
2021/12/23 01:58:18;;;;;;;17.60;10.77;;;0.70;38.30;;;;;;5012524;28;20462;-63
2021/12/23 02:00:47;;;;;;;18.87;11.27;;;0.80;42.50;;;;;;5012124;28;20457;-61
2021/12/23 02:03:14;;;;;;;19.50;10.93;;;0.70;49.50;;;;;;5012934;28;20530;-62
2021/12/23 02:05:41;;;;;;;18.27;12.00;;;0.70;54.10;;;;;;5013264;28;20457;-64
2021/12/23 02:08:08;;;;;;;18.83;10.77;;;0.70;52.60;;;;;;5012085;28;20495;-62
2021/12/23 02:10:35;;;;;;;19.23;11.83;;;0.70;61.60;;;;;;5012571;28;20829;-62
2021/12/23 02:13:04;;;;;;;18.13;10.70;;;0.70;56.50;;;;;;5012593;28;20811;-62
2021/12/23 02:15:31;;;;;;;18.43;11.63;;;0.70;67.80;;;;;;5012187;28;20810;-62
2021/12/23 02:17:58;;;;;;;17.37;11.57;;;0.70;42.00;;;;;;5012126;28;20907;-62
2021/12/23 02:20:30;;;;;;;18.90;11.60;;;0.70;70.40;;;;;;5012214;28;20451;-62
2021/12/23 02:22:57;;;;;;;19.87;11.20;;;0.70;70.10;;;;;;5011766;28;20477;-61
2021/12/23 02:25:23;;;;;;;19.43;11.30;;;0.70;82.70;;;;;;5012187;28;20462;-62
2021/12/23 02:27:51;;;;;;;20.47;11.57;;;0.70;91.60;;;;;;5011763;28;20509;-63
2021/12/23 02:30:22;;;;;;;19.13;10.13;;;0.60;99.90;;;;;;5012186;28;20534;-62
2021/12/23 02:32:49;;;;;;;16.83;10.73;;;0.60;99.90;;;;;;5012077;28;20450;-62
2021/12/23 02:35:17;;;;;;;18.53;11.37;;;0.60;99.90;;;;;;5011791;28;20458;-61
2021/12/23 02:37:47;;;;;;;17.83;10.93;;;0.60;99.90;;;;;;5011788;28;20466;-62
2021/12/23 02:40:25;;;;;;;23.90;12.40;;;0.60;99.90;;;;;;5011970;28;20540;-61
2021/12/23 02:42:52;;;;;;;15.50;9.70;;;0.70;99.90;;;;;;5011960;28;20452;-61
2021/12/23 02:45:19;;;;;;;18.97;10.87;;;0.70;99.90;;;;;;5011549;28;20524;-61
2021/12/23 02:47:45;;;;;;;19.83;11.77;;;0.80;99.90;;;;;;5011382;28;20482;-62
2021/12/23 02:50:12;;;;;;;20.30;11.80;;;0.80;99.90;;;;;;5011324;28;20449;-61
2021/12/23 02:52:39;;;;;;;21.57;12.17;;;0.90;99.90;;;;;;5011119;28;20504;-62
2021/12/23 02:55:08;;;;;;;22.10;12.33;;;0.90;99.90;;;;;;5011217;28;20474;-61
2021/12/23 02:57:35;;;;;;;20.77;12.10;;;0.90;99.90;;;;;;5011383;28;20468;-61
2021/12/23 03:00:02;;;;;;;16.33;10.37;;;0.90;99.90;;;;;;5011561;28;20458;-62
2021/12/23 03:02:29;;;;;;;19.00;12.00;;;0.90;99.90;;;;;;5011147;28;20457;-62
2021/12/23 03:04:56;;;;;;;20.57;12.30;;;0.90;99.90;;;;;;5011238;28;20531;-62
2021/12/23 03:07:22;;;;;;;21.70;11.80;;;0.90;99.90;;;;;;5010876;28;20862;-61
2021/12/23 03:09:49;;;;;;;21.47;12.10;;;0.90;99.90;;;;;;5011107;28;20488;-62
2021/12/23 03:12:17;;;;;;;19.50;13.10;;;0.90;99.90;;;;;;5011281;28;20460;-62
2021/12/23 03:14:44;;;;;;;18.80;12.73;;;0.90;99.90;;;;;;5010990;28;20505;-62
2021/12/23 03:17:10;;;;;;;20.57;11.40;;;1.00;99.90;;;;;;5011054;28;20467;-62
2021/12/23 03:19:37;;;;;;;22.53;12.70;;;1.00;99.90;;;;;;5011015;28;20477;-61
2021/12/23 03:22:04;;;;;;;19.80;11.23;;;1.00;99.90;;;;;;5010928;28;20506;-63
2021/12/23 03:24:31;;;;;;;22.50;13.60;;;1.00;99.90;;;;;;5011276;28;20452;-62
2021/12/23 03:26:58;;;;;;;20.43;12.70;;;0.90;99.90;;;;;;5010913;28;20480;-62
2021/12/23 03:29:26;;;;;;;21.97;13.23;;;0.90;99.90;;;;;;5012567;28;20488;-61
2021/12/23 03:31:53;;;;;;;20.47;12.93;;;0.90;99.90;;;;;;5013669;28;20500;-62
2021/12/23 03:34:19;;;;;;;19.60;12.73;;;1.00;99.90;;;;;;5011653;28;20454;-62
2021/12/23 03:36:46;;;;;;;22.40;12.67;;;1.00;99.90;;;;;;5013931;28;20865;-63
2021/12/23 03:39:13;;;;;;;20.57;12.30;;;1.00;99.90;;;;;;5014768;28;20498;-62
2021/12/23 03:41:40;;;;;;;21.30;12.33;;;1.10;99.90;;;;;;5014940;28;20463;-61
2021/12/23 03:44:07;;;;;;;21.03;13.43;;;1.10;99.90;;;;;;5014612;28;20951;-62
2021/12/23 03:46:37;;;;;;;23.30;13.07;;;1.20;99.90;;;;;;5014158;28;20452;-62
2021/12/23 03:49:05;;;;;;;22.23;13.10;;;1.10;99.90;;;;;;5014085;28;20492;-62
2021/12/23 03:51:32;;;;;;;20.03;12.60;;;1.00;99.90;;;;;;5014456;28;20450;-62
2021/12/23 03:53:59;;;;;;;21.77;12.83;;;1.00;99.90;;;;;;5014589;28;20861;-62
2021/12/23 03:56:26;;;;;;;21.17;12.70;;;1.00;99.90;;;;;;5014120;28;20465;-61
2021/12/23 03:58:54;;;;;;;26.03;13.80;;;0.90;99.90;;;;;;5014319;28;20466;-62
2021/12/23 04:01:22;;;;;;;22.40;13.67;;;0.90;99.90;;;;;;5014063;28;20600;-63
2021/12/23 04:03:50;;;;;;;21.83;13.60;;;0.80;99.90;;;;;;5013847;28;20453;-62
2021/12/23 04:06:17;;;;;;;21.70;13.13;;;0.80;99.90;;;;;;5013932;28;20453;-63
2021/12/23 04:08:44;;;;;;;23.70;14.10;;;0.90;99.90;;;;;;5013962;28;20552;-61
2021/12/23 04:11:11;;;;;;;20.60;12.60;;;0.90;99.90;;;;;;5013776;28;20455;-62
2021/12/23 04:13:38;;;;;;;22.33;12.60;;;1.00;99.90;;;;;;5014041;28;20498;-62
2021/12/23 04:16:05;;;;;;;21.60;12.90;;;0.90;99.90;;;;;;5013752;28;20450;-61
2021/12/23 04:18:32;;;;;;;24.20;13.97;;;0.80;99.90;;;;;;5028614;28;21267;-61
2021/12/23 04:21:00;;;;;;;25.33;14.50;;;0.60;99.90;;;;;;5034091;28;20483;-62
2021/12/23 04:23:29;;;;;;;22.23;14.23;;;0.50;99.90;;;;;;5033798;28;20485;-62
2021/12/23 04:25:56;;;;;;;24.57;15.43;;;0.50;1.00;;;;;;5033825;28;21169;-62
2021/12/23 04:28:25;;;;;;;24.93;13.70;;;0.50;1.00;;;;;;5033438;28;20542;-62
2021/12/23 04:30:52;;;;;;;25.17;14.17;;;0.40;1.00;;;;;;5033453;28;20457;-62
2021/12/23 04:33:19;;;;;;;24.10;13.83;;;0.40;51.30;;;;;;5033416;28;20526;-61
2021/12/23 04:35:46;;;;;;;22.17;13.90;;;0.40;99.90;;;;;;5033482;28;20454;-62
2021/12/23 04:38:14;;;;;;;24.03;14.27;;;0.50;99.90;;;;;;5033307;28;20886;-62
2021/12/23 04:40:41;;;;;;;22.77;13.20;;;0.50;99.90;;;;;;5032983;28;20453;-61
2021/12/23 04:43:08;;;;;;;23.70;14.27;;;0.50;99.90;;;;;;5033065;28;20450;-61
2021/12/23 04:45:35;;;;;;;23.43;12.97;;;0.30;99.90;;;;;;5032571;28;20540;-61
2021/12/23 04:48:02;;;;;;;23.33;14.87;;;0.30;99.90;;;;;;5033046;28;20876;-62
2021/12/23 04:50:29;;;;;;;21.40;13.47;;;0.20;99.90;;;;;;5033283;28;20456;-62
2021/12/23 04:52:56;;;;;;;23.20;14.83;;;0.20;1.00;;;;;;5033624;28;20460;-61
2021/12/23 04:55:24;;;;;;;26.10;13.90;;;0.20;1.00;;;;;;5032996;28;20512;-62
2021/12/23 04:57:51;;;;;;;30.40;16.47;;;0.20;1.00;;;;;;5032291;28;20477;-60
2021/12/23 05:00:20;;;;;;;26.63;13.37;;;0.10;1.00;;;;;;5033110;28;20769;-62
2021/12/23 05:02:47;;;;;;;26.33;14.90;;;0.10;1.00;;;;;;5032752;28;20503;-61
2021/12/23 05:05:14;;;;;;;27.80;14.63;;;0.10;1.00;;;;;;5032535;28;20965;-61
2021/12/23 05:07:42;;;;;;;22.43;13.67;;;0.10;1.00;;;;;;5032400;28;20491;-61
2021/12/23 05:10:10;;;;;;;28.03;15.27;;;0.10;1.00;;;;;;5032563;28;20477;-62
2021/12/23 05:12:43;;;;;;;22.20;13.97;;;0.10;1.00;;;;;;5032630;28;20457;-62
2021/12/23 05:15:11;;;;;;;28.33;14.20;;;0.00;45.90;;;;;;5032900;28;20460;-61
2021/12/23 05:17:37;;;;;;;25.33;12.83;;;0.00;84.20;;;;;;5032669;28;20560;-60
2021/12/23 05:20:06;;;;;;;26.27;13.80;;;0.00;99.90;;;;;;5032655;28;20471;-62
2021/12/23 05:22:32;;;;;;;24.57;14.87;;;-0.10;99.90;;;;;;5032561;28;21012;-62
2021/12/23 05:24:59;;;;;;;21.70;14.33;;;-0.10;99.90;;;;;;5032177;28;20523;-62
2021/12/23 05:27:26;;;;;;;23.10;13.83;;;0.00;99.90;;;;;;5032431;28;20477;-61
2021/12/23 05:29:54;;;;;;;26.27;14.70;;;0.00;99.90;;;;;;5032525;28;20485;-62
2021/12/23 05:32:20;;;;;;;24.27;14.40;;;-0.10;99.90;;;;;;5032433;28;20445;-62
2021/12/23 05:34:47;;;;;;;23.00;14.57;;;-0.10;99.90;;;;;;5032611;28;20460;-62
2021/12/23 05:37:14;;;;;;;23.20;14.30;;;-0.10;99.90;;;;;;5031714;28;20481;-61
2021/12/23 05:39:41;;;;;;;24.27;13.90;;;-0.10;99.90;;;;;;5032105;28;20453;-61
2021/12/23 05:42:08;;;;;;;27.47;15.13;;;0.00;99.90;;;;;;5032229;28;20464;-62
2021/12/23 05:44:34;;;;;;;23.23;13.00;;;0.00;99.90;;;;;;5032140;28;20478;-62
2021/12/23 05:47:03;;;;;;;25.43;13.93;;;0.00;99.90;;;;;;5031950;28;20469;-62
2021/12/23 05:49:29;;;;;;;23.73;14.00;;;0.00;99.90;;;;;;5031694;28;21002;-62
2021/12/23 05:51:56;;;;;;;27.43;15.23;;;0.00;99.90;;;;;;5031783;28;20445;-60
2021/12/23 05:54:23;;;;;;;26.13;14.13;;;0.10;99.90;;;;;;5031975;28;20444;-62
2021/12/23 05:56:50;;;;;;;22.73;13.53;;;0.10;99.90;;;;;;5031741;28;20607;-62
2021/12/23 05:59:17;;;;;;;21.33;12.87;;;0.10;99.90;;;;;;5031213;28;20446;-61
2021/12/23 06:01:44;;;;;;;22.20;13.30;;;0.10;99.90;;;;;;5031924;28;20484;-62
2021/12/23 06:04:12;;;;;;;23.40;13.17;;;0.10;99.90;;;;;;5032086;28;20531;-62
2021/12/23 06:06:38;;;;;;;25.40;14.77;;;0.20;99.90;;;;;;5031261;28;20452;-62
2021/12/23 06:09:05;;;;;;;27.00;14.43;;;0.30;99.90;;;;;;5031900;28;20567;-61
2021/12/23 06:11:31;;;;;;;24.07;14.67;;;0.30;99.90;;;;;;5031701;28;20514;-62
2021/12/23 06:13:58;;;;;;;24.10;13.67;;;0.30;99.90;;;;;;5031820;28;20448;-62
2021/12/23 06:16:25;;;;;;;21.90;13.40;;;0.40;99.90;;;;;;5031627;28;20460;-61
2021/12/23 06:18:52;;;;;;;23.57;14.73;;;0.40;84.60;;;;;;5031648;28;20469;-62
2021/12/23 06:21:22;;;;;;;24.03;13.23;;;0.40;11.90;;;;;;5031464;28;20446;-61
2021/12/23 06:23:48;;;;;;;24.20;14.40;;;0.40;84.60;;;;;;5031818;28;20493;-62
2021/12/23 06:26:15;;;;;;;28.30;15.30;;;0.40;2.90;;;;;;5031695;28;20458;-62
2021/12/23 06:28:42;;;;;;;26.50;15.70;;;0.40;1.00;;;;;;5031287;28;20527;-62
2021/12/23 06:31:09;;;;;;;22.27;12.57;;;0.40;1.00;;;;;;5031477;28;20505;-62
2021/12/23 06:33:35;;;;;;;26.37;15.50;;;0.50;1.00;;;;;;5030866;28;20486;-61
2021/12/23 06:36:02;;;;;;;22.40;15.00;;;0.60;1.00;;;;;;5031471;28;20458;-62
2021/12/23 06:38:31;;;;;;;24.13;15.37;;;0.60;1.00;;;;;;5031330;28;20628;-62
2021/12/23 06:40:57;;;;;;;27.97;15.87;;;0.60;1.00;;;;;;5031270;28;20874;-62
2021/12/23 06:43:24;;;;;;;27.00;15.80;;;0.60;1.00;;;;;;5031470;28;20447;-63
2021/12/23 06:45:51;;;;;;;27.53;15.37;;;0.70;1.00;;;;;;5031349;28;20453;-63
2021/12/23 06:48:18;;;;;;;28.23;15.27;;;0.70;1.00;;;;;;5031154;28;20474;-61
2021/12/23 06:50:45;;;;;;;24.27;14.63;;;0.60;1.00;;;;;;5031346;28;20902;-62
2021/12/23 06:53:14;;;;;;;25.73;15.27;;;0.60;1.00;;;;;;5032109;28;20548;-61
2021/12/23 06:55:42;;;;;;;25.50;14.80;;;0.50;1.00;;;;;;5031518;28;20457;-62
2021/12/23 06:58:08;;;;;;;24.23;13.57;;;0.50;1.00;;;;;;5031115;28;20465;-62
2021/12/23 07:00:35;;;;;;;26.43;14.63;;;0.40;1.00;;;;;;5031333;28;20455;-62
2021/12/23 07:03:02;;;;;;;28.10;15.67;;;0.40;8.30;;;;;;5031577;28;20861;-61
2021/12/23 07:05:29;;;;;;;25.20;14.73;;;0.40;53.50;;;;;;5031528;28;20997;-62
2021/12/23 07:07:57;;;;;;;27.23;15.93;;;0.30;84.50;;;;;;5031287;28;20466;-62
2021/12/23 07:10:26;;;;;;;29.73;15.60;;;0.40;90.00;;;;;;5033875;28;20489;-62
2021/12/23 07:12:55;;;;;;;23.77;14.83;;;0.40;40.00;;;;;;5034829;28;20855;-61
2021/12/23 07:15:23;;;;;;;28.90;15.40;;;0.40;84.60;;;;;;5034706;28;20445;-62
2021/12/23 07:17:50;;;;;;;25.80;14.63;;;0.30;99.90;;;;;;5034720;28;20478;-62
2021/12/23 07:20:17;;;;;;;31.60;16.07;;;0.30;99.90;;;;;;5034858;28;20445;-63
2021/12/23 07:22:45;;;;;;;30.00;16.00;;;0.30;99.90;;;;;;5034776;28;20507;-62
2021/12/23 07:25:13;;;;;;;26.60;14.97;;;0.30;99.90;;;;;;5034637;28;20449;-62
2021/12/23 07:27:39;;;;;;;26.87;15.23;;;0.30;99.90;;;;;;5034648;28;20470;-62
2021/12/23 07:30:09;;;;;;;28.80;15.13;;;0.30;99.90;;;;;;5034607;28;20482;-62
2021/12/23 07:32:36;;;;;;;22.43;14.20;;;0.30;99.90;;;;;;5034712;28;20448;-62
2021/12/23 07:35:03;;;;;;;28.60;14.80;;;0.30;99.90;;;;;;5034391;28;20508;-62
2021/12/23 07:37:29;;;;;;;25.43;15.27;;;0.30;99.90;;;;;;5034478;28;20589;-62
2021/12/23 07:39:56;;;;;;;26.33;15.40;;;0.40;99.90;;;;;;5034709;28;20450;-62
2021/12/23 07:42:25;;;;;;;25.07;15.07;;;0.40;99.90;;;;;;5034176;28;20495;-62
2021/12/23 07:44:52;;;;;;;26.10;15.87;;;0.40;99.90;;;;;;5034609;28;20522;-62
2021/12/23 07:47:20;;;;;;;27.30;15.80;;;0.40;84.60;;;;;;5034012;28;20971;-61
2021/12/23 07:49:47;;;;;;;25.20;14.63;;;0.40;99.90;;;;;;5034290;28;20476;-61
2021/12/23 07:52:15;;;;;;;24.10;15.00;;;0.40;98.10;;;;;;5034085;28;20522;-63
2021/12/23 07:54:42;;;;;;;26.67;13.90;;;0.40;99.90;;;;;;5034080;28;20459;-62
2021/12/23 07:57:09;;;;;;;27.20;15.73;;;0.40;99.90;;;;;;5033711;28;20526;-62
2021/12/23 07:59:35;;;;;;;24.77;14.80;;;0.50;84.80;;;;;;5034241;28;20842;-62
2021/12/23 08:02:02;;;;;;;23.30;14.60;;;0.50;98.10;;;;;;5034611;28;20815;-62
2021/12/23 08:04:33;;;;;;;25.77;15.03;;;0.50;49.20;;;;;;5034030;28;20894;-62
2021/12/23 08:07:02;;;;;;;27.70;15.40;;;0.60;12.00;;;;;;5033925;28;20496;-61
2021/12/23 08:09:29;;;;;;;24.70;14.73;;;0.60;1.00;;;;;;5033562;28;20480;-63
2021/12/23 08:11:56;;;;;;;24.07;14.70;;;0.70;1.00;;;;;;5034288;28;20464;-61
2021/12/23 08:14:23;;;;;;;25.37;14.90;;;0.80;1.00;;;;;;5033715;28;20949;-62
2021/12/23 08:16:49;;;;;;;27.40;15.80;;;0.90;1.00;;;;;;5033184;28;20570;-62
2021/12/23 08:19:16;;;;;;;25.23;14.33;;;0.90;1.00;;;;;;5034006;28;20826;-62
2021/12/23 08:21:44;;;;;;;22.47;13.17;;;0.90;1.00;;;;;;5033013;28;20960;-62
2021/12/23 08:24:11;;;;;;;23.60;14.40;;;0.90;1.00;;;;;;5033689;28;20952;-61
2021/12/23 08:26:42;;;;;;;26.00;15.43;;;0.90;1.00;;;;;;5033254;28;20451;-61
2021/12/23 08:29:09;;;;;;;24.83;13.80;;;1.00;99.90;;;;;;5033679;28;20550;-62
2021/12/23 08:31:36;;;;;;;24.80;14.40;;;1.00;99.90;;;;;;5033605;28;20478;-60
2021/12/23 08:34:03;;;;;;;27.77;14.90;;;1.00;99.90;;;;;;5033275;28;20452;-62
2021/12/23 08:36:30;;;;;;;21.37;13.00;;;1.10;99.90;;;;;;5033060;28;20458;-62
2021/12/23 08:38:59;;;;;;;25.40;15.53;;;1.20;99.90;;;;;;5026603;28;20521;-62
2021/12/23 08:41:26;;;;;;;22.70;14.33;;;1.20;99.90;;;;;;5032943;28;20517;-62
2021/12/23 08:43:53;;;;;;;28.00;15.63;;;1.10;99.90;;;;;;5032885;28;20455;-62
2021/12/23 08:46:20;;;;;;;26.30;14.03;;;1.10;99.90;;;;;;5032443;28;20456;-62
2021/12/23 08:48:47;;;;;;;24.93;13.70;;;1.10;99.90;;;;;;5032468;28;20482;-62
2021/12/23 08:51:14;;;;;;;24.93;15.10;;;1.20;99.90;;;;;;5032244;28;20499;-62
2021/12/23 08:53:41;;;;;;;22.70;14.73;;;1.20;99.90;;;;;;5032746;28;20459;-61
2021/12/23 08:56:09;;;;;;;26.00;15.10;;;1.20;99.90;;;;;;5032226;28;20476;-61
2021/12/23 08:58:36;;;;;;;23.17;13.57;;;1.20;99.90;;;;;;5032278;28;20494;-61
2021/12/23 09:01:04;;;;;;;25.47;13.63;;;1.30;99.90;;;;;;5032691;28;20459;-54
2021/12/23 09:03:32;;;;;;;21.67;13.50;;;1.40;99.90;;;;;;5032284;28;20444;-54
2021/12/23 09:06:00;;;;;;;21.93;13.07;;;1.40;99.90;;;;;;5032331;28;20587;-56
2021/12/23 09:08:27;;;;;;;26.23;14.53;;;1.40;99.90;;;;;;5032126;28;20526;-59
2021/12/23 09:10:54;;;;;;;23.30;13.90;;;1.50;99.90;;;;;;5032596;28;20491;-58
2021/12/23 09:13:22;;;;;;;23.23;13.10;;;1.50;99.90;;;;;;5032698;28;20832;-58
2021/12/23 09:15:49;;;;;;;24.10;12.77;;;1.50;97.00;;;;;;5032327;28;20502;-57
2021/12/23 09:18:16;;;;;;;23.33;13.03;;;1.50;98.10;;;;;;5032689;28;20489;-57
2021/12/23 09:20:43;;;;;;;26.53;15.13;;;1.60;99.90;;;;;;5033331;28;20479;-55
2021/12/23 09:23:09;;;;;;;27.57;14.63;;;1.60;99.90;;;;;;5032334;28;20549;-61
2021/12/23 09:25:37;;;;;;;24.33;14.00;;;1.60;99.80;;;;;;5032553;28;20536;-61
2021/12/23 09:28:13;;;;;;;20.63;12.97;;;1.70;40.20;;;;;;5031846;28;21013;-62
2021/12/23 09:33:26;;;;;;;24.73;13.63;;;1.80;1.00;;;;;;5031129;28;20549;-62
2021/12/23 09:35:53;;;;;;;23.77;13.13;;;1.90;1.00;;;;;;5031999;28;20456;-63
2021/12/23 09:38:27;;;;;;;22.37;14.37;;;1.90;1.00;;;;;;5032197;28;20835;-63
2021/12/23 09:40:54;;;;;;;25.40;14.83;;;2.00;1.00;;;;;;5031788;28;20448;-63
2021/12/23 09:43:22;;;;;;;20.73;13.17;;;2.10;1.00;;;;;;5031757;28;20506;-64
2021/12/23 09:45:52;;;;;;;21.47;12.70;;;2.10;1.00;;;;;;5031419;28;20946;-62
2021/12/23 09:48:21;;;;;;;20.00;11.73;;;2.20;1.00;;;;;;5031295;28;20476;-62
2021/12/23 09:50:50;;;;;;;18.47;11.80;;;2.30;1.00;;;;;;5031580;28;20484;-61
2021/12/23 09:53:19;;;;;;;18.70;11.70;;;2.40;1.00;;;;;;5031687;28;20444;-62
2021/12/23 09:55:46;;;;;;;20.03;11.87;;;2.40;1.00;;;;;;5031187;28;20978;-62
2021/12/23 09:58:13;;;;;;;20.47;11.33;;;2.50;99.90;;;;;;5031259;28;20476;-63
2021/12/23 10:00:45;;;;;;;19.03;12.07;;;2.50;99.90;;;;;;5031671;28;20445;-63
2021/12/23 10:03:14;;;;;;;22.50;12.27;;;2.60;99.90;;;;;;5031499;28;20541;-61
2021/12/23 10:05:41;;;;;;;20.57;11.63;;;2.60;99.90;;;;;;5031646;28;20476;-61
2021/12/23 10:08:10;;;;;;;21.70;12.03;;;2.70;99.90;;;;;;5030939;28;20785;-58
2021/12/23 10:10:41;;;;;;;18.83;11.00;;;2.70;99.90;;;;;;5031495;28;20481;-62
2021/12/23 10:27:44;;;;;;;18.63;10.73;;;3.40;1.00;;;;;;5028792;28;20491;-61
2021/12/23 10:38:23;;;;;;;17.67;9.97;;;3.50;1.00;;;;;;5031007;28;20252;-57
2021/12/23 10:40:53;;;;;;;17.97;10.60;;;3.60;1.00;;;;;;5030972;28;20202;-58
2021/12/23 10:43:27;;;;;;;18.90;10.27;;;3.70;1.00;;;;;;5030916;28;20208;-59
2021/12/23 10:45:57;;;;;;;21.07;9.77;;;3.70;1.00;;;;;;5034577;28;20216;-59
2021/12/23 10:48:25;;;;;;;20.03;10.53;;;3.80;1.00;;;;;;5035034;28;20230;-62
2021/12/23 10:51:00;;;;;;;16.63;9.93;;;3.80;1.00;;;;;;5034767;28;20338;-62
2021/12/23 10:53:47;;;;;;;17.47;10.17;;;3.90;1.00;;;;;;5035147;28;20241;-63
2021/12/23 10:59:10;;;;;;;15.90;10.03;;;4.10;1.00;;;;;;5034817;28;20197;-64
2021/12/23 11:01:58;;;;;;;18.20;10.10;;;4.20;1.00;;;;;;5034348;28;20670;-64
2021/12/23 11:04:25;;;;;;;18.23;9.70;;;4.20;1.00;;;;;;5034783;28;20303;-63
2021/12/23 11:07:10;;;;;;;15.73;8.77;;;4.30;1.00;;;;;;5034916;28;20270;-64
2021/12/23 11:09:43;;;;;;;15.97;9.17;;;4.40;1.00;;;;;;5034734;28;20216;-62
2021/12/23 11:37:57;;;;;;;19.57;10.27;;;4.60;1.00;;;;;;5087504;28;20715;-61
2021/12/23 11:40:50;;;;;;;17.23;9.80;;;4.70;1.00;;;;;;5088540;28;20203;-62
2021/12/23 11:43:45;;;;;;;19.97;10.70;;;4.70;1.00;;;;;;5088229;28;20552;-62
2021/12/23 11:46:13;;;;;;;17.30;10.30;;;4.70;1.00;;;;;;5087480;28;20735;-61
2021/12/23 11:48:44;;;;;;;23.20;11.17;;;4.70;1.00;;;;;;5087918;28;20233;-59
2021/12/23 11:51:19;;;;;;;16.87;9.67;;;4.70;1.00;;;;;;5088348;28;20281;-61
2021/12/23 11:53:48;;;;;;;17.30;9.50;;;4.80;1.00;;;;;;5088459;28;20232;-62
2021/12/23 11:56:18;;;;;;;16.10;10.23;;;4.90;1.00;;;;;;5088373;28;20225;-61
2021/12/23 11:58:47;;;;;;;16.80;9.07;;;4.90;1.00;;;;;;5087911;28;20230;-60
2021/12/23 12:01:18;;;;;;;15.13;9.50;;;4.90;1.00;;;;;;5088175;28;20212;-62
2021/12/23 12:03:58;;;;;;;16.90;9.77;;;5.00;1.00;;;;;;5088516;28;20202;-61
2021/12/23 12:06:28;;;;;;;20.63;10.00;;;5.00;1.00;;;;;;5087883;28;20213;-60
2021/12/23 12:09:08;;;;;;;17.43;10.33;;;5.10;1.00;;;;;;5087902;28;20330;-58
2021/12/23 12:11:35;;;;;;;18.23;10.90;;;5.10;1.00;;;;;;5088079;28;20219;-63
2021/12/23 12:14:02;;;;;;;17.93;10.60;;;5.10;1.00;;;;;;5087845;28;20227;-66
2021/12/23 12:16:34;;;;;;;17.10;10.90;;;5.10;1.00;;;;;;5087764;28;20218;-63
2021/12/23 12:19:03;;;;;;;16.87;10.57;;;5.10;1.00;;;;;;5087486;28;20207;-63
2021/12/23 12:21:33;;;;;;;18.30;10.50;;;5.10;1.00;;;;;;5087542;28;20207;-61
2021/12/23 12:24:09;;;;;;;18.87;11.00;;;5.10;1.00;;;;;;5087976;28;20203;-61
2021/12/23 12:26:49;;;;;;;18.70;10.60;;;5.10;1.00;;;;;;5087328;28;20670;-63
2021/12/23 12:29:21;;;;;;;19.80;11.40;;;5.20;1.00;;;;;;5087859;28;20234;-62
2021/12/23 12:31:47;;;;;;;20.00;11.03;;;5.20;1.00;;;;;;5087757;28;20700;-63
2021/12/23 12:34:14;;;;;;;21.23;11.43;;;5.20;1.00;;;;;;5087340;28;20319;-63
2021/12/23 12:36:44;;;;;;;15.43;9.50;;;5.20;1.00;;;;;;5087172;28;20566;-61
2021/12/23 12:39:20;;;;;;;16.80;9.97;;;5.20;1.00;;;;;;5087767;28;20581;-63
2021/12/23 12:41:47;;;;;;;17.37;11.20;;;5.20;1.00;;;;;;5087969;28;20659;-61
2021/12/23 12:44:21;;;;;;;16.93;10.20;;;5.20;1.00;;;;;;5087872;28;20210;-61
2021/12/23 12:47:04;;;;;;;17.87;10.40;;;5.20;1.00;;;;;;5078862;28;20223;-68
2021/12/23 12:49:35;;;;;;;16.13;9.60;;;5.20;1.00;;;;;;5074702;28;20206;-67
2021/12/23 12:52:17;;;;;;;17.87;9.80;;;5.20;1.00;;;;;;5074153;28;20561;-69
2021/12/23 12:54:48;;;;;;;15.77;10.37;;;5.40;1.00;;;;;;5073709;28;20251;-69
2021/12/23 12:57:17;;;;;;;16.17;9.53;;;5.40;1.00;;;;;;5074566;28;20601;-70
2021/12/23 12:59:46;;;;;;;16.53;10.20;;;5.50;1.00;;;;;;5073629;28;20338;-69
2021/12/23 13:02:26;;;;;;;21.63;9.70;;;5.50;1.00;;;;;;5074138;28;20209;-69
2021/12/23 13:04:59;;;;;;;17.20;9.93;;;5.40;1.00;;;;;;5074354;28;20303;-69
2021/12/23 13:07:31;;;;;;;18.50;9.63;;;5.50;1.00;;;;;;5073448;28;20298;-70
2021/12/23 13:10:03;;;;;;;15.27;9.17;;;5.60;1.00;;;;;;5073367;28;20678;-68
2021/12/23 13:12:36;;;;;;;16.90;10.10;;;5.60;1.00;;;;;;5074121;28;20204;-68
2021/12/23 13:15:19;;;;;;;15.60;9.27;;;5.60;1.00;;;;;;5073861;28;20225;-69
2021/12/23 13:17:49;;;;;;;15.60;9.47;;;5.70;1.00;;;;;;5073105;28;20710;-70
2021/12/23 13:20:17;;;;;;;15.83;9.13;;;5.70;1.00;;;;;;5073612;28;20213;-69
2021/12/23 13:22:46;;;;;;;18.07;10.40;;;5.80;1.00;;;;;;5074004;28;20671;-71
2021/12/23 13:25:13;;;;;;;17.57;9.53;;;5.80;1.00;;;;;;5073258;28;20212;-67
2021/12/23 13:27:41;;;;;;;14.93;9.23;;;5.90;1.00;;;;;;5072576;28;20616;-57
2021/12/23 13:30:11;;;;;;;15.93;9.70;;;6.00;1.00;;;;;;5072771;28;20205;-59
2021/12/23 13:32:38;;;;;;;17.30;9.80;;;6.00;1.00;;;;;;5072870;28;20536;-62
2021/12/23 13:35:10;;;;;;;17.87;9.37;;;6.00;20.30;;;;;;5073096;28;20705;-58
2021/12/23 13:37:41;;;;;;;16.77;9.83;;;6.00;29.20;;;;;;5072419;28;20221;-59
2021/12/23 13:40:11;;;;;;;15.23;8.47;;;6.10;74.40;;;;;;5072522;28;20558;-61
2021/12/23 13:42:40;;;;;;;16.87;9.50;;;6.10;95.90;;;;;;5072777;28;20201;-61
2021/12/23 13:45:08;;;;;;;18.83;10.50;;;6.20;99.90;;;;;;5072521;28;20297;-62
2021/12/23 13:47:36;;;;;;;18.67;9.87;;;6.30;99.90;;;;;;5072544;28;20232;-62